createdAt,value
2022-11-08T00:00:45.243Z,35.10
2022-11-08T00:03:12.904Z,31.37
2022-11-08T00:05:58.937Z,31.10
2022-11-08T00:08:44.767Z,36.37
2022-11-08T00:11:30.637Z,31.77
2022-11-08T00:13:59.400Z,29.53
2022-11-08T00:16:28.566Z,25.83
2022-11-08T00:18:56.113Z,33.87
2022-11-08T00:21:24.131Z,33.77
2022-11-08T00:23:51.677Z,28.50
2022-11-08T00:26:19.169Z,26.87
2022-11-08T00:28:46.659Z,28.37
2022-11-08T00:31:14.203Z,32.37
2022-11-08T00:33:41.713Z,30.17
2022-11-08T00:36:09.643Z,30.40
2022-11-08T00:38:37.214Z,31.70
2022-11-08T00:41:04.713Z,28.10
2022-11-08T00:43:32.434Z,32.17
2022-11-08T00:45:59.871Z,29.03
2022-11-08T00:48:27.398Z,25.30
2022-11-08T00:50:54.862Z,24.17
2022-11-08T00:53:22.308Z,24.80
2022-11-08T00:55:49.800Z,24.30
2022-11-08T00:58:17.421Z,24.27
2022-11-08T01:00:45.200Z,24.40
2022-11-08T01:03:21.738Z,23.07
2022-11-08T01:05:50.463Z,26.43
2022-11-08T01:08:20.250Z,25.03
2022-11-08T01:10:53.055Z,27.53
2022-11-08T01:13:21.147Z,25.63
2022-11-08T01:15:49.604Z,23.27
2022-11-08T01:18:18.003Z,28.00
2022-11-08T01:20:47.950Z,22.33
2022-11-08T01:23:17.113Z,26.43
2022-11-08T01:25:47.395Z,24.60
2022-11-08T01:28:15.888Z,24.27
2022-11-08T01:30:45.256Z,26.70
2022-11-08T01:33:13.682Z,23.40
2022-11-08T01:35:45.211Z,24.30
2022-11-08T01:38:13.303Z,22.03
2022-11-08T01:40:48.517Z,24.43
2022-11-08T01:43:40.275Z,26.60
2022-11-08T01:46:12.968Z,20.03
2022-11-08T01:49:25.151Z,20.90
2022-11-08T01:52:08.399Z,24.77
2022-11-08T01:54:44.955Z,21.73
2022-11-08T01:57:19.617Z,25.47
2022-11-08T01:59:50.279Z,26.70
2022-11-08T02:02:18.717Z,27.10
2022-11-08T02:04:46.260Z,28.17
2022-11-08T02:07:14.729Z,34.97
2022-11-08T02:09:46.551Z,26.67
2022-11-08T02:12:15.991Z,27.90
2022-11-08T02:14:43.961Z,30.33
2022-11-08T02:17:11.990Z,29.70
2022-11-08T02:19:51.785Z,24.23
2022-11-08T02:22:29.594Z,24.33
2022-11-08T02:24:58.616Z,26.40
2022-11-08T02:27:26.770Z,26.93
2022-11-08T02:29:56.011Z,26.93
2022-11-08T02:32:26.381Z,27.47
2022-11-08T02:34:58.590Z,23.43
2022-11-08T02:37:27.172Z,29.43
2022-11-08T02:39:54.731Z,26.40
2022-11-08T02:42:22.300Z,25.33
2022-11-08T02:44:50.034Z,27.77
2022-11-08T02:47:17.788Z,26.27
2022-11-08T02:49:45.350Z,26.57
2022-11-08T02:52:12.894Z,30.03
2022-11-08T02:54:40.407Z,25.67
2022-11-08T02:57:07.971Z,24.77
2022-11-08T02:59:35.429Z,30.00
2022-11-08T03:02:02.976Z,30.37
2022-11-08T03:04:30.533Z,26.00
2022-11-08T03:06:58.045Z,34.53
2022-11-08T03:09:27.202Z,35.23
2022-11-08T03:11:54.709Z,33.70
2022-11-08T03:14:22.484Z,30.80
2022-11-08T03:16:49.905Z,28.33
2022-11-08T03:19:17.385Z,31.47
2022-11-08T03:21:44.960Z,27.17
2022-11-08T03:24:12.761Z,36.20
2022-11-08T03:26:40.258Z,26.60
2022-11-08T03:29:07.857Z,27.37
2022-11-08T03:31:35.356Z,30.40
2022-11-08T03:34:05.299Z,30.07
2022-11-08T03:36:32.722Z,29.23
2022-11-08T03:39:00.246Z,27.73
2022-11-08T03:41:27.782Z,29.90
2022-11-08T03:43:55.253Z,28.60
2022-11-08T03:46:22.788Z,36.17
2022-11-08T03:48:50.305Z,37.60
2022-11-08T03:51:17.880Z,36.13
2022-11-08T03:53:45.383Z,36.97
2022-11-08T03:56:12.837Z,33.50
2022-11-08T03:58:40.242Z,35.37
2022-11-08T04:01:08.154Z,32.27
2022-11-08T04:03:35.737Z,34.33
2022-11-08T04:06:04.554Z,33.20
2022-11-08T04:08:32.159Z,30.80
2022-11-08T04:11:20.739Z,33.27
2022-11-08T04:14:06.909Z,29.23
2022-11-08T04:16:34.633Z,28.77
2022-11-08T04:19:20.781Z,28.50
2022-11-08T04:21:50.989Z,26.80
2022-11-08T04:24:18.567Z,27.90
2022-11-08T04:26:46.413Z,27.33
2022-11-08T04:29:14.370Z,35.27
2022-11-08T04:31:42.144Z,34.77
2022-11-08T04:34:09.653Z,29.73
2022-11-08T04:36:37.101Z,24.57
2022-11-08T04:39:04.729Z,28.67
2022-11-08T04:41:32.285Z,27.93
2022-11-08T04:43:59.842Z,29.03
2022-11-08T04:46:29.454Z,27.67
2022-11-08T04:48:59.395Z,25.27
2022-11-08T04:51:31.015Z,27.67
2022-11-08T04:54:02.614Z,31.70
2022-11-08T04:56:31.766Z,27.00
2022-11-08T04:59:01.226Z,28.47
2022-11-08T05:01:33.281Z,31.87
2022-11-08T05:04:00.825Z,32.73
2022-11-08T05:06:32.510Z,30.13
2022-11-08T05:09:00.711Z,31.13
2022-11-08T05:11:30.535Z,48.47
2022-11-08T05:13:58.813Z,55.20
2022-11-08T05:16:32.283Z,33.37
2022-11-08T05:19:00.502Z,46.73
2022-11-08T05:21:47.122Z,68.83
2022-11-08T05:24:17.591Z,82.73
2022-11-08T05:26:48.354Z,85.50
2022-11-08T05:29:17.188Z,65.70
2022-11-08T05:31:45.079Z,57.00
2022-11-08T05:34:12.604Z,42.57
2022-11-08T05:36:40.093Z,32.67
2022-11-08T05:39:07.531Z,48.37
2022-11-08T05:41:35.001Z,44.60
2022-11-08T05:44:02.529Z,40.83
2022-11-08T05:46:29.956Z,40.50
2022-11-08T05:48:57.439Z,35.50
2022-11-08T05:51:24.966Z,28.60
2022-11-08T05:53:52.441Z,28.17
2022-11-08T05:56:21.286Z,29.83
2022-11-08T05:58:48.920Z,31.13
2022-11-08T06:01:20.824Z,37.50
2022-11-08T06:03:48.920Z,46.23
2022-11-08T06:06:19.958Z,57.90
2022-11-08T06:08:50.553Z,45.63
2022-11-08T06:11:23.141Z,33.00
2022-11-08T06:13:53.456Z,33.53
2022-11-08T06:16:23.379Z,42.37
2022-11-08T06:18:50.882Z,40.77
2022-11-08T06:21:21.416Z,33.03
2022-11-08T06:23:53.592Z,24.97
2022-11-08T06:26:22.949Z,33.67
2022-11-08T06:28:50.646Z,32.37
2022-11-08T06:31:18.073Z,25.23
2022-11-08T06:33:46.418Z,27.27
2022-11-08T06:36:13.855Z,28.03
2022-11-08T06:38:41.353Z,28.20
2022-11-08T06:41:17.228Z,32.23
2022-11-08T06:43:44.688Z,29.53
2022-11-08T06:46:12.194Z,30.33
2022-11-08T06:48:39.710Z,27.77
2022-11-08T06:51:07.440Z,38.40
2022-11-08T06:53:36.514Z,35.77
2022-11-08T06:56:04.437Z,34.50
2022-11-08T06:58:32.054Z,32.70
2022-11-08T07:01:02.339Z,33.90
2022-11-08T07:03:30.508Z,31.03
2022-11-08T07:05:58.147Z,35.23
2022-11-08T07:08:25.632Z,32.63
2022-11-08T07:10:53.775Z,28.03
2022-11-08T07:13:21.778Z,28.33
2022-11-08T07:15:49.518Z,30.63
2022-11-08T07:18:19.359Z,28.50
2022-11-08T07:20:47.153Z,28.73
2022-11-08T07:23:15.124Z,31.27
2022-11-08T07:25:42.687Z,34.43
2022-11-08T07:28:18.552Z,29.93
2022-11-08T07:30:48.020Z,34.20
2022-11-08T07:33:16.885Z,34.03
2022-11-08T07:35:47.617Z,39.87
2022-11-08T07:38:15.123Z,45.50
2022-11-08T07:40:43.161Z,50.50
2022-11-08T07:43:23.366Z,46.27
2022-11-08T07:46:02.457Z,41.00
2022-11-08T07:48:31.711Z,39.40
2022-11-08T07:50:59.161Z,33.93
2022-11-08T07:53:26.640Z,35.27
2022-11-08T07:55:55.198Z,33.07
2022-11-08T07:58:22.746Z,46.00
2022-11-08T08:00:52.794Z,37.10
2022-11-08T08:03:20.861Z,34.10
2022-11-08T08:06:00.740Z,31.97
2022-11-08T08:08:29.875Z,31.70
2022-11-08T08:11:19.577Z,31.63
2022-11-08T08:13:47.430Z,32.70
2022-11-08T08:16:14.830Z,30.10
2022-11-08T08:18:42.317Z,27.47
2022-11-08T08:21:12.549Z,25.17
2022-11-08T08:23:40.051Z,28.27
2022-11-08T08:26:07.593Z,28.20
2022-11-08T08:28:35.054Z,27.77
2022-11-08T08:31:02.541Z,25.90
2022-11-08T08:33:30.179Z,24.80
2022-11-08T08:36:01.316Z,28.70
2022-11-08T08:38:32.835Z,26.43
2022-11-08T08:41:02.449Z,26.13
2022-11-08T08:43:35.158Z,27.00
2022-11-08T08:46:07.019Z,28.87
2022-11-08T08:48:35.911Z,24.90
2022-11-08T08:51:03.343Z,24.50
2022-11-08T08:53:30.805Z,23.57
2022-11-08T08:55:58.417Z,25.87
2022-11-08T08:58:25.946Z,30.90
2022-11-08T09:03:40.946Z,23.53
2022-11-08T09:06:08.414Z,23.50
2022-11-08T09:08:36.029Z,26.93
2022-11-08T09:11:03.676Z,28.23
2022-11-08T09:13:32.417Z,22.03
2022-11-08T09:16:02.911Z,21.10
2022-11-08T09:18:31.458Z,26.43
2022-11-08T09:20:59.317Z,17.50
2022-11-08T09:23:27.367Z,23.10
2022-11-08T09:26:04.271Z,19.53
2022-11-08T09:28:34.156Z,22.50
2022-11-08T09:31:06.625Z,25.43
2022-11-08T09:33:34.823Z,26.57
2022-11-08T09:36:04.335Z,21.60
2022-11-08T09:38:32.151Z,21.17
2022-11-08T09:41:17.559Z,22.23
2022-11-08T09:43:47.767Z,29.73
2022-11-08T09:47:18.785Z,20.27
2022-11-08T09:50:20.681Z,19.17
2022-11-08T09:53:20.237Z,19.63
2022-11-08T09:56:01.244Z,15.73
2022-11-08T09:58:41.137Z,20.27
2022-11-08T10:01:12.700Z,19.00
2022-11-08T10:03:44.961Z,22.43
2022-11-08T10:06:39.635Z,18.90
2022-11-08T10:09:25.248Z,17.37
2022-11-08T10:12:27.841Z,15.43
2022-11-08T10:15:12.509Z,17.80
2022-11-08T10:17:50.716Z,15.03
2022-11-08T10:20:30.144Z,16.47
2022-11-08T10:23:08.196Z,14.07
2022-11-08T10:25:48.226Z,16.93
2022-11-08T10:28:22.880Z,15.33
2022-11-08T10:30:54.354Z,18.03
2022-11-08T10:33:49.533Z,16.33
2022-11-08T10:36:42.466Z,14.43
2022-11-08T10:39:25.018Z,16.10
2022-11-08T10:42:05.949Z,13.03
2022-11-08T10:44:35.245Z,15.73
2022-11-08T10:47:07.120Z,13.20
2022-11-08T10:49:44.131Z,14.03
2022-11-08T10:52:26.233Z,12.23
2022-11-08T10:54:56.553Z,17.27
2022-11-08T10:57:33.333Z,11.67
2022-11-08T11:00:21.098Z,13.53
2022-11-08T11:02:53.938Z,14.73
2022-11-08T11:05:29.385Z,18.83
2022-11-08T11:08:08.618Z,15.33
2022-11-08T11:10:41.046Z,15.80
2022-11-08T11:13:29.168Z,13.70
2022-11-08T11:16:00.057Z,15.07
2022-11-08T11:18:49.094Z,18.07
2022-11-08T11:21:23.006Z,10.43
2022-11-08T11:23:56.443Z,13.07
2022-11-08T11:26:34.358Z,15.83
2022-11-08T11:29:19.746Z,16.42
2022-11-08T11:31:50.773Z,17.48
2022-11-08T11:34:18.177Z,16.05
2022-11-08T11:36:51.222Z,15.55
2022-11-08T11:39:44.330Z,15.43
2022-11-08T11:42:47.300Z,16.98
2022-11-08T11:45:35.253Z,12.10
2022-11-08T11:48:15.602Z,17.73
2022-11-08T11:50:49.906Z,19.45
2022-11-08T11:53:23.307Z,14.85
2022-11-08T11:56:18.133Z,19.77
2022-11-08T11:59:41.891Z,17.33
2022-11-08T12:02:53.455Z,18.98
2022-11-08T12:05:59.793Z,13.50
2022-11-08T12:08:54.482Z,14.90
2022-11-08T12:11:47.649Z,15.20
2022-11-08T12:14:29.780Z,15.95
2022-11-08T12:17:37.911Z,19.25
2022-11-08T12:20:39.402Z,18.48
2022-11-08T12:23:18.721Z,18.27
2022-11-08T12:26:11.302Z,19.52
2022-11-08T12:29:00.430Z,36.43
2022-11-08T12:31:43.075Z,17.90
2022-11-08T12:34:43.493Z,35.57
2022-11-08T12:37:42.751Z,16.57
2022-11-08T12:40:45.467Z,16.77
2022-11-08T12:43:35.910Z,16.87
2022-11-08T12:46:19.378Z,22.17
2022-11-08T12:49:16.074Z,17.03
2022-11-08T12:52:27.584Z,23.27
2022-11-08T12:55:02.708Z,19.10
2022-11-08T12:57:31.382Z,17.70
2022-11-08T13:00:28.321Z,15.07
2022-11-08T13:03:30.846Z,18.97
2022-11-08T13:06:15.165Z,19.05
2022-11-08T13:09:22.466Z,16.80
2022-11-08T13:12:02.617Z,18.25
2022-11-08T13:14:31.045Z,15.48
2022-11-08T13:32:12.198Z,20.77
2022-11-08T13:34:56.332Z,18.83
2022-11-08T13:38:08.409Z,189.45
2022-11-08T13:40:46.693Z,52.23
2022-11-08T13:43:22.568Z,52.70
2022-11-08T13:45:50.633Z,24.73
2022-11-08T13:48:23.738Z,16.80
2022-11-08T13:51:15.100Z,26.15
2022-11-08T13:53:53.097Z,66.60
2022-11-08T13:57:00.621Z,103.90
2022-11-08T13:59:31.071Z,103.35
2022-11-08T14:01:58.905Z,84.70
2022-11-08T14:04:33.630Z,46.42
2022-11-08T14:07:25.958Z,95.22
2022-11-08T14:10:04.482Z,95.10
2022-11-08T14:13:27.793Z,37.93
2022-11-08T14:16:07.800Z,18.17
2022-11-08T14:18:39.283Z,23.53
2022-11-08T14:21:08.231Z,25.60
2022-11-08T14:23:40.318Z,25.13
2022-11-08T14:26:22.268Z,20.37
2022-11-08T14:28:52.398Z,106.27
2022-11-08T14:31:31.885Z,190.60
2022-11-08T14:34:01.054Z,205.87
2022-11-08T14:36:31.062Z,223.07
2022-11-08T14:39:16.298Z,249.07
2022-11-08T14:41:53.213Z,298.97
2022-11-08T14:44:25.071Z,273.80
2022-11-08T14:46:53.934Z,286.07
2022-11-08T14:49:35.159Z,279.77
2022-11-08T14:52:07.711Z,293.57
2022-11-08T14:54:42.967Z,328.30
2022-11-08T14:57:32.675Z,484.33
2022-11-08T15:00:13.787Z,130.53
2022-11-08T15:02:56.689Z,46.83
2022-11-08T15:05:39.669Z,29.33
2022-11-08T15:08:27.592Z,25.77
2022-11-08T15:10:59.502Z,24.90
2022-11-08T15:13:30.626Z,23.57
2022-11-08T15:16:04.034Z,33.93
2022-11-08T15:18:43.604Z,27.90
2022-11-08T15:21:22.615Z,19.83
2022-11-08T15:24:12.091Z,22.70
2022-11-08T15:27:01.684Z,24.30
2022-11-08T15:29:29.169Z,25.80
2022-11-08T15:32:01.930Z,20.70
2022-11-08T15:34:39.096Z,18.13
2022-11-08T15:37:36.284Z,24.90
2022-11-08T15:40:31.883Z,26.30
2022-11-08T15:43:01.044Z,23.77
2022-11-08T15:45:33.074Z,21.37
2022-11-08T15:48:09.164Z,18.70
2022-11-08T15:50:36.887Z,22.40
2022-11-08T15:53:05.872Z,23.43
2022-11-08T15:55:39.639Z,22.47
2022-11-08T15:58:18.423Z,21.03
2022-11-08T16:00:57.791Z,19.73
2022-11-08T16:03:25.717Z,17.63
2022-11-08T16:05:53.326Z,23.23
2022-11-08T16:08:21.353Z,19.97
2022-11-08T16:11:01.246Z,23.60
2022-11-08T16:13:36.703Z,19.87
2022-11-08T16:16:12.087Z,20.33
2022-11-08T16:18:41.452Z,21.27
2022-11-08T16:21:13.447Z,22.17
2022-11-08T16:23:42.006Z,18.47
2022-11-08T16:26:17.216Z,18.90
2022-11-08T16:28:45.534Z,22.03
2022-11-08T16:31:16.432Z,19.50
2022-11-08T16:33:46.255Z,25.97
2022-11-08T16:36:23.488Z,29.57
2022-11-08T16:38:54.763Z,20.53
2022-11-08T16:41:23.860Z,28.63
2022-11-08T16:43:51.552Z,23.80
2022-11-08T16:46:22.088Z,24.20
2022-11-08T16:48:58.372Z,26.80
2022-11-08T16:51:28.200Z,26.60
2022-11-08T16:53:55.770Z,29.27
2022-11-08T16:56:26.390Z,34.27
2022-11-08T16:58:54.970Z,29.03
2022-11-08T17:01:35.631Z,31.83
2022-11-08T17:04:05.436Z,31.77
2022-11-08T17:06:33.804Z,32.30
2022-11-08T17:09:05.850Z,29.13
2022-11-08T17:11:34.477Z,34.73
2022-11-08T17:14:07.946Z,35.23
2022-11-08T17:16:47.300Z,37.73
2022-11-08T17:19:14.890Z,42.90
2022-11-08T17:21:45.562Z,61.27
2022-11-08T17:24:21.545Z,77.33
2022-11-08T17:26:51.377Z,48.33
2022-11-08T17:29:19.965Z,45.37
2022-11-08T17:31:53.798Z,47.43
2022-11-08T17:34:21.916Z,45.23
2022-11-08T17:36:53.119Z,43.17
2022-11-08T17:39:21.609Z,39.43
2022-11-08T17:41:51.569Z,37.83
2022-11-08T17:44:20.771Z,36.30
2022-11-08T17:46:49.294Z,40.57
2022-11-08T17:49:19.937Z,45.37
2022-11-08T17:51:48.879Z,56.33
2022-11-08T17:54:17.386Z,64.77
2022-11-08T17:56:51.821Z,68.03
2022-11-08T17:59:22.559Z,75.60
2022-11-08T18:01:51.484Z,87.20
2022-11-08T18:04:20.140Z,82.73
2022-11-08T18:06:49.066Z,75.23
2022-11-08T18:09:19.137Z,69.27
2022-11-08T18:11:48.506Z,69.27
2022-11-08T18:14:28.806Z,66.33
2022-11-08T18:17:00.245Z,64.43
2022-11-08T18:19:30.873Z,56.87
2022-11-08T18:22:00.385Z,50.17
2022-11-08T18:24:35.049Z,49.27
2022-11-08T18:27:05.483Z,58.00
2022-11-08T18:29:36.924Z,52.53
2022-11-08T18:32:05.173Z,51.80
2022-11-08T18:34:32.737Z,51.77
2022-11-08T18:37:00.457Z,51.47
2022-11-08T18:39:28.006Z,55.53
2022-11-08T18:41:56.479Z,54.17
2022-11-08T18:44:24.926Z,58.63
2022-11-08T18:46:58.363Z,55.00
2022-11-08T18:49:29.790Z,56.90
2022-11-08T18:51:59.965Z,55.63
2022-11-08T18:54:31.889Z,59.53
2022-11-08T18:57:02.307Z,59.93
2022-11-08T18:59:35.740Z,53.37
2022-11-08T19:02:03.496Z,57.23
2022-11-08T19:04:31.425Z,56.10
2022-11-08T19:07:01.033Z,58.67
2022-11-08T19:09:29.029Z,71.40
2022-11-08T19:12:00.482Z,65.00
2022-11-08T19:14:30.985Z,61.43
2022-11-08T19:17:01.575Z,70.93
2022-11-08T19:19:29.985Z,62.73
2022-11-08T19:22:00.631Z,61.23
2022-11-08T19:24:31.155Z,65.43
2022-11-08T19:26:58.689Z,59.57
2022-11-08T19:29:28.734Z,59.90
2022-11-08T19:32:01.325Z,55.93
2022-11-08T19:34:34.032Z,65.20
2022-11-08T19:37:01.920Z,64.77
2022-11-08T19:39:33.678Z,52.47
2022-11-08T19:42:03.239Z,40.90
2022-11-08T19:44:32.825Z,44.73
2022-11-08T19:47:03.148Z,50.37
2022-11-08T19:49:35.615Z,48.50
2022-11-08T19:52:06.620Z,41.40
2022-11-08T19:54:36.948Z,46.30
2022-11-08T19:57:05.809Z,45.67
2022-11-08T19:59:38.090Z,50.53
2022-11-08T20:02:08.931Z,42.33
2022-11-08T20:04:36.746Z,45.40
2022-11-08T20:07:05.803Z,46.47
2022-11-08T20:09:39.505Z,51.47
2022-11-08T20:12:09.755Z,48.80
2022-11-08T20:14:38.278Z,48.07
2022-11-08T20:17:07.626Z,46.90
2022-11-08T20:19:35.170Z,43.97
2022-11-08T20:22:04.671Z,47.77
2022-11-08T20:24:32.977Z,55.27
2022-11-08T20:27:05.247Z,53.90
2022-11-08T20:29:34.436Z,58.80
2022-11-08T20:32:03.759Z,66.83
2022-11-08T20:34:33.074Z,76.07
2022-11-08T20:37:21.611Z,71.90
2022-11-08T20:39:49.235Z,75.27
2022-11-08T20:42:20.772Z,73.87
2022-11-08T20:44:56.046Z,69.90
2022-11-08T20:47:24.670Z,66.87
2022-11-08T20:49:54.873Z,59.20
2022-11-08T20:52:26.710Z,63.33
2022-11-08T20:54:56.982Z,66.30
2022-11-08T20:57:24.560Z,59.97
2022-11-08T20:59:53.934Z,57.07
2022-11-08T21:02:22.157Z,59.03
2022-11-08T21:04:49.767Z,56.00
2022-11-08T21:10:35.905Z,69.07
2022-11-08T21:12:53.958Z,68.50
2022-11-08T21:15:26.794Z,60.33
2022-11-08T21:17:54.655Z,61.40
2022-11-08T21:20:23.437Z,66.00
2022-11-08T21:22:50.987Z,65.70
2022-11-08T21:25:19.739Z,56.77
2022-11-08T21:27:48.600Z,59.13
2022-11-08T21:30:16.926Z,62.03
2022-11-08T21:32:44.397Z,59.70
2022-11-08T21:35:15.999Z,66.03
2022-11-08T21:37:44.644Z,73.93
2022-11-08T21:40:12.456Z,77.17
2022-11-08T21:42:42.658Z,76.30
2022-11-08T21:45:14.736Z,75.67
2022-11-08T21:47:43.365Z,74.30
2022-11-08T21:50:11.078Z,76.30
2022-11-08T21:52:41.957Z,62.20
2022-11-08T21:55:12.537Z,82.27
2022-11-08T21:57:42.045Z,124.30
2022-11-08T22:00:12.116Z,113.37
2022-11-08T22:02:41.291Z,112.33
2022-11-08T22:05:09.936Z,139.03
2022-11-08T22:07:38.162Z,103.57
2022-11-08T22:10:07.033Z,87.30
2022-11-08T22:12:35.718Z,93.73
2022-11-08T22:15:03.167Z,85.47
2022-11-08T22:17:30.760Z,81.93
2022-11-08T22:19:58.188Z,78.33
2022-11-08T22:22:25.687Z,79.03
2022-11-08T22:24:53.451Z,71.07
2022-11-08T22:27:20.960Z,52.77
2022-11-08T22:29:48.424Z,59.47
2022-11-08T22:32:15.908Z,69.27
2022-11-08T22:34:44.153Z,62.30
2022-11-08T22:37:11.569Z,56.80
2022-11-08T22:39:39.156Z,89.10
2022-11-08T22:42:06.611Z,113.83
2022-11-08T22:44:34.166Z,126.03
2022-11-08T22:47:01.642Z,141.17
2022-11-08T22:49:29.117Z,114.50
2022-11-08T22:51:59.076Z,97.77
2022-11-08T22:54:27.469Z,71.23
2022-11-08T22:56:55.043Z,77.17
2022-11-08T22:59:22.488Z,55.77
2022-11-08T23:01:50.035Z,48.93
2022-11-08T23:04:17.653Z,49.00
2022-11-08T23:06:45.187Z,61.10
2022-11-08T23:09:12.792Z,58.20
2022-11-08T23:11:58.806Z,56.13
2022-11-08T23:14:44.681Z,50.90
2022-11-08T23:17:12.870Z,49.93
2022-11-08T23:19:58.756Z,49.10
2022-11-08T23:22:44.634Z,54.50
2022-11-08T23:25:12.147Z,47.20
2022-11-08T23:27:59.508Z,60.57
2022-11-08T23:30:45.748Z,54.50
2022-11-08T23:33:13.394Z,46.33
2022-11-08T23:36:01.913Z,49.77
2022-11-08T23:38:29.997Z,49.83
2022-11-08T23:41:18.358Z,48.10
2022-11-08T23:44:04.703Z,55.93
2022-11-08T23:46:32.310Z,41.03
2022-11-08T23:48:59.836Z,48.33
2022-11-08T23:51:27.288Z,49.90
2022-11-08T23:53:54.776Z,41.20
2022-11-08T23:56:27.583Z,44.57
2022-11-08T23:58:58.996Z,47.23
